Time;durP1;ratioP1;P1;durP2;ratioP2;P2;SDS_P1;SDS_P2;PMS_P1;PMS_P2;Temp;Humidity;BMP_temperature;BMP_pressure;BME280_temperature;BME280_humidity;BME280_pressure;Samples;Min_cycle;Max_cycle;Signal;HPM_P1;HPM_P2
2023/04/23 00:02:01;;;;;;;;;;;9.90;99.90;;;;;;7330258;19;110508;-74
2023/04/23 00:04:32;;;;;;;;;;;10.00;99.90;;;;;;7333661;19;110698;-74
2023/04/23 00:07:01;;;;;;;;;;;10.00;99.90;;;;;;7343189;19;109046;-74
2023/04/23 00:09:30;;;;;;;;;;;10.10;99.90;;;;;;7333415;19;110884;-74
2023/04/23 00:11:58;;;;;;;;;;;10.10;99.90;;;;;;7336041;19;109100;-73
2023/04/23 00:14:25;;;;;;;;;;;10.10;99.90;;;;;;7333044;19;111192;-74
2023/04/23 00:16:52;;;;;;;;;;;10.20;99.90;;;;;;7333852;19;111242;-75
2023/04/23 00:19:19;;;;;;;;;;;10.20;99.90;;;;;;7334567;19;109338;-74
2023/04/23 00:21:47;;;;;;;;;;;10.20;99.90;;;;;;7335804;19;109412;-74
2023/04/23 00:24:14;;;;;;;;;;;10.20;99.90;;;;;;7328968;19;110813;-74
2023/04/23 00:26:41;;;;;;;;;;;10.20;99.90;;;;;;7334409;19;108816;-76
2023/04/23 00:29:07;;;;;;;;;;;10.30;99.90;;;;;;7341136;19;109946;-74
2023/04/23 00:31:35;;;;;;;;;;;10.30;99.90;;;;;;7336074;19;109497;-74
2023/04/23 00:34:02;;;;;;;;;;;10.40;99.90;;;;;;7331496;19;109637;-74
2023/04/23 00:36:29;;;;;;;;;;;10.40;99.90;;;;;;7333734;19;109480;-74
2023/04/23 00:38:56;;;;;;;;;;;10.40;99.90;;;;;;7333161;19;110293;-74
2023/04/23 00:41:23;;;;;;;;;;;10.40;99.90;;;;;;7335310;19;110372;-74
2023/04/23 00:43:51;;;;;;;;;;;10.40;99.90;;;;;;7335224;19;110085;-74
2023/04/23 00:46:19;;;;;;;;;;;10.50;99.90;;;;;;7333463;19;109050;-74
2023/04/23 00:48:46;;;;;;;;;;;10.50;99.90;;;;;;7334673;19;110817;-74
2023/04/23 00:51:15;;;;;;;;;;;10.50;99.90;;;;;;7337987;19;109649;-74
2023/04/23 00:53:42;;;;;;;;;;;10.50;99.90;;;;;;7334170;19;109623;-74
2023/04/23 00:56:09;;;;;;;;;;;10.50;99.90;;;;;;7333013;19;110123;-74
2023/04/23 00:58:36;;;;;;;;;;;10.60;99.90;;;;;;7333580;19;108779;-75
2023/04/23 01:01:03;;;;;;;;;;;10.60;99.90;;;;;;7334719;19;110102;-76
2023/04/23 01:03:31;;;;;;;;;;;10.60;99.90;;;;;;7330723;19;110394;-74
2023/04/23 01:05:58;;;;;;;;;;;10.60;99.90;;;;;;7331761;19;109542;-74
2023/04/23 01:08:25;;;;;;;;;;;10.60;99.90;;;;;;7335664;19;110530;-75
2023/04/23 01:10:53;;;;;;;;;;;10.70;99.90;;;;;;7332625;19;108558;-74
2023/04/23 01:13:28;;;;;;;;;;;10.70;99.90;;;;;;7342631;19;109597;-74
2023/04/23 01:15:55;;;;;;;;;;;10.70;99.90;;;;;;7339873;19;109790;-75
2023/04/23 01:18:23;;;;;;;;;;;10.70;99.90;;;;;;7342210;19;108448;-75
2023/04/23 01:20:50;;;;;;;;;;;10.80;99.90;;;;;;7339630;19;109587;-75
2023/04/23 01:23:17;;;;;;;;;;;10.80;99.90;;;;;;7343671;19;109300;-74
2023/04/23 01:25:45;;;;;;;;;;;10.80;99.90;;;;;;7339532;19;108550;-75
2023/04/23 01:28:13;;;;;;;;;;;10.90;99.90;;;;;;7341038;19;109157;-74
2023/04/23 01:30:41;;;;;;;;;;;10.90;99.90;;;;;;7340261;19;111004;-74
2023/04/23 01:33:09;;;;;;;;;;;10.90;99.90;;;;;;7343022;19;110710;-74
2023/04/23 01:35:36;;;;;;;;;;;10.80;99.90;;;;;;7343835;19;110502;-74
2023/04/23 01:38:03;;;;;;;;;;;10.80;99.90;;;;;;7343353;19;109142;-75
2023/04/23 01:40:31;;;;;;;;;;;10.80;99.90;;;;;;7339681;19;109219;-74
2023/04/23 01:42:58;;;;;;;;;;;10.80;99.90;;;;;;7341408;19;108525;-75
2023/04/23 01:45:25;;;;;;;;;;;10.80;99.90;;;;;;7337577;19;109596;-75
2023/04/23 01:47:53;;;;;;;;;;;10.70;99.90;;;;;;7339566;19;108961;-75
2023/04/23 01:50:23;;;;;;;;;;;10.70;99.90;;;;;;7338065;19;108865;-75
2023/04/23 01:52:50;;;;;;;;;;;10.70;99.90;;;;;;7341592;19;109304;-74
2023/04/23 01:55:20;;;;;;;;;;;10.70;99.90;;;;;;7338271;19;110284;-77
2023/04/23 01:57:47;;;;;;;;;;;10.70;99.90;;;;;;7341809;19;108712;-78
2023/04/23 02:00:14;;;;;;;;;;;10.60;99.90;;;;;;7339960;19;111582;-76
2023/04/23 02:02:42;;;;;;;;;;;10.60;99.90;;;;;;7337446;19;108871;-76
2023/04/23 02:05:11;;;;;;;;;;;10.60;99.90;;;;;;7340576;19;108915;-77
2023/04/23 02:07:39;;;;;;;;;;;10.60;99.90;;;;;;7338422;19;110059;-78
2023/04/23 02:10:07;;;;;;;;;;;10.60;99.90;;;;;;7341400;19;108637;-77
2023/04/23 02:12:34;;;;;;;;;;;10.50;99.90;;;;;;7339147;19;109134;-78
2023/04/23 02:15:02;;;;;;;;;;;10.50;99.90;;;;;;7340158;19;109350;-83
2023/04/23 02:17:29;;;;;;;;;;;10.50;99.90;;;;;;7344444;19;109061;-79
2023/04/23 02:19:57;;;;;;;;;;;10.50;99.90;;;;;;7337230;19;112038;-76
2023/04/23 02:22:25;;;;;;;;;;;10.50;99.90;;;;;;7339157;19;108725;-74
2023/04/23 02:24:52;;;;;;;;;;;10.50;99.90;;;;;;7337647;19;109434;-75
2023/04/23 02:27:19;;;;;;;;;;;10.50;99.90;;;;;;7339698;19;110471;-74
2023/04/23 02:29:47;;;;;;;;;;;10.60;99.90;;;;;;7327492;19;109730;-75
2023/04/23 02:32:14;;;;;;;;;;;10.60;99.90;;;;;;7339860;19;108852;-74
2023/04/23 02:34:41;;;;;;;;;;;10.70;99.90;;;;;;7337883;19;110534;-74
2023/04/23 02:37:09;;;;;;;;;;;10.70;99.90;;;;;;7337731;19;108805;-74
2023/04/23 02:39:37;;;;;;;;;;;10.70;99.90;;;;;;7343641;19;112471;-74
2023/04/23 02:42:05;;;;;;;;;;;10.80;99.90;;;;;;7335875;19;109575;-75
2023/04/23 02:44:32;;;;;;;;;;;10.80;99.90;;;;;;7336974;19;109181;-74
2023/04/23 02:46:59;;;;;;;;;;;10.90;99.90;;;;;;7336162;19;109129;-74
2023/04/23 02:49:26;;;;;;;;;;;10.90;99.90;;;;;;7338690;19;108802;-74
2023/04/23 02:51:53;;;;;;;;;;;10.90;99.90;;;;;;7337702;19;108916;-75
2023/04/23 02:54:21;;;;;;;;;;;10.90;99.90;;;;;;7333063;19;109426;-74
2023/04/23 02:56:48;;;;;;;;;;;10.90;99.90;;;;;;7339491;19;109893;-74
2023/04/23 02:59:15;;;;;;;;;;;11.00;99.90;;;;;;7335249;19;110862;-74
2023/04/23 03:01:42;;;;;;;;;;;11.00;99.90;;;;;;7340882;19;113736;-74
2023/04/23 03:04:11;;;;;;;;;;;10.90;99.90;;;;;;7337770;19;109647;-74
2023/04/23 03:06:38;;;;;;;;;;;10.90;99.90;;;;;;7338679;19;110265;-74
2023/04/23 03:09:05;;;;;;;;;;;10.90;99.90;;;;;;7339370;19;109860;-74
2023/04/23 03:11:32;;;;;;;;;;;11.00;99.90;;;;;;7339466;19;110639;-75
2023/04/23 03:13:59;;;;;;;;;;;10.90;99.90;;;;;;7337391;19;109824;-75
2023/04/23 03:16:27;;;;;;;;;;;10.90;99.90;;;;;;7335834;19;110536;-74
2023/04/23 03:18:54;;;;;;;;;;;10.90;99.90;;;;;;7337692;19;110514;-75
2023/04/23 03:21:22;;;;;;;;;;;10.90;99.90;;;;;;7334604;19;109034;-80
2023/04/23 03:23:49;;;;;;;;;;;10.80;99.90;;;;;;7344042;19;108779;-77
2023/04/23 03:26:16;;;;;;;;;;;10.80;99.90;;;;;;7334525;19;110348;-79
2023/04/23 03:28:43;;;;;;;;;;;10.80;99.90;;;;;;7337857;19;109593;-80
2023/04/23 03:31:10;;;;;;;;;;;10.80;99.90;;;;;;7337319;19;111821;-75
2023/04/23 03:33:37;;;;;;;;;;;10.80;99.90;;;;;;7336176;19;110145;-76
2023/04/23 03:36:06;;;;;;;;;;;10.70;99.90;;;;;;7338262;19;111012;-75
2023/04/23 03:38:33;;;;;;;;;;;10.70;99.90;;;;;;7334700;19;109375;-75
2023/04/23 03:41:00;;;;;;;;;;;10.70;99.90;;;;;;7335696;19;110205;-75
2023/04/23 03:43:27;;;;;;;;;;;10.60;99.90;;;;;;7336032;19;108418;-76
2023/04/23 03:45:54;;;;;;;;;;;10.60;99.90;;;;;;7342085;19;109935;-75
2023/04/23 03:48:21;;;;;;;;;;;10.50;99.90;;;;;;7334218;19;109941;-76
2023/04/23 03:50:48;;;;;;;;;;;10.50;99.90;;;;;;7337857;19;109112;-73
2023/04/23 03:53:16;;;;;;;;;;;10.50;99.90;;;;;;7335001;19;109971;-75
2023/04/23 03:55:43;;;;;;;;;;;10.50;99.90;;;;;;7338087;19;110196;-74
2023/04/23 03:58:10;;;;;;;;;;;10.40;99.90;;;;;;7335005;19;108888;-73
2023/04/23 04:00:37;;;;;;;;;;;10.40;99.90;;;;;;7335274;19;112311;-74
2023/04/23 04:03:04;;;;;;;;;;;10.40;99.90;;;;;;7337738;19;109818;-74
2023/04/23 04:05:31;;;;;;;;;;;10.40;99.90;;;;;;7342868;19;109381;-73
2023/04/23 04:07:58;;;;;;;;;;;10.30;99.90;;;;;;7337843;19;108441;-73
2023/04/23 04:10:25;;;;;;;;;;;10.30;99.90;;;;;;7336514;19;108853;-74
2023/04/23 04:12:54;;;;;;;;;;;10.20;99.90;;;;;;7337418;19;110367;-74
2023/04/23 04:15:21;;;;;;;;;;;10.20;99.90;;;;;;7337738;19;112680;-74
2023/04/23 04:17:48;;;;;;;;;;;10.20;99.90;;;;;;7334915;19;111878;-73
2023/04/23 04:20:15;;;;;;;;;;;10.20;99.90;;;;;;7336340;19;109091;-74
2023/04/23 04:22:42;;;;;;;;;;;10.10;99.90;;;;;;7336934;19;108857;-74
2023/04/23 04:25:09;;;;;;;;;;;10.20;99.90;;;;;;7335874;19;108579;-74
2023/04/23 04:27:36;;;;;;;;;;;10.10;99.90;;;;;;7339818;19;109279;-74
2023/04/23 04:30:04;;;;;;;;;;;10.10;99.90;;;;;;7335590;19;108508;-74
2023/04/23 04:32:31;;;;;;;;;;;10.10;99.90;;;;;;7332871;19;110053;-74
2023/04/23 04:34:58;;;;;;;;;;;10.00;99.90;;;;;;7334796;19;108574;-74
2023/04/23 04:37:26;;;;;;;;;;;10.10;99.90;;;;;;7336990;19;108725;-74
2023/04/23 04:39:54;;;;;;;;;;;10.10;99.90;;;;;;7333817;19;110963;-74
2023/04/23 04:42:21;;;;;;;;;;;10.10;99.90;;;;;;7332436;19;111770;-74
2023/04/23 04:44:48;;;;;;;;;;;10.10;99.90;;;;;;7332311;19;110229;-73
2023/04/23 04:47:15;;;;;;;;;;;10.10;99.90;;;;;;7332105;19;110499;-74
2023/04/23 04:49:42;;;;;;;;;;;10.00;99.90;;;;;;7342085;19;108709;-74
2023/04/23 04:52:09;;;;;;;;;;;10.00;99.90;;;;;;7331762;19;109334;-74
2023/04/23 04:54:36;;;;;;;;;;;10.00;99.90;;;;;;7335165;19;108569;-74
2023/04/23 04:57:03;;;;;;;;;;;10.00;99.90;;;;;;7332522;19;109954;-73
2023/04/23 04:59:30;;;;;;;;;;;10.00;99.90;;;;;;7333114;19;109504;-73
2023/04/23 05:01:58;;;;;;;;;;;10.00;99.90;;;;;;7331894;19;108967;-74
2023/04/23 05:04:25;;;;;;;;;;;10.00;99.90;;;;;;7331137;19;109762;-74
2023/04/23 05:06:52;;;;;;;;;;;10.00;99.90;;;;;;7329526;19;109101;-73
2023/04/23 05:09:19;;;;;;;;;;;10.00;99.90;;;;;;7332887;19;109152;-73
2023/04/23 05:11:47;;;;;;;;;;;10.10;99.90;;;;;;7338685;19;110409;-74
2023/04/23 05:14:14;;;;;;;;;;;10.10;99.90;;;;;;7333330;19;108536;-73
2023/04/23 05:16:41;;;;;;;;;;;10.20;99.90;;;;;;7333649;19;109261;-74
2023/04/23 05:19:09;;;;;;;;;;;10.20;99.90;;;;;;7334256;19;110231;-74
2023/04/23 05:21:36;;;;;;;;;;;10.30;99.90;;;;;;7333880;19;108933;-74
2023/04/23 05:24:03;;;;;;;;;;;10.40;99.90;;;;;;7331873;19;109250;-74
2023/04/23 05:26:30;;;;;;;;;;;10.40;99.90;;;;;;7333664;19;110391;-72
2023/04/23 05:28:57;;;;;;;;;;;10.50;99.90;;;;;;7335719;19;108656;-73
2023/04/23 05:31:24;;;;;;;;;;;10.50;99.90;;;;;;7336442;19;108523;-73
2023/04/23 05:33:54;;;;;;;;;;;10.60;99.90;;;;;;7334614;19;109969;-73
2023/04/23 05:36:21;;;;;;;;;;;10.70;99.90;;;;;;7334201;19;109048;-74
2023/04/23 05:38:48;;;;;;;;;;;10.70;99.90;;;;;;7332771;19;108525;-74
2023/04/23 05:41:15;;;;;;;;;;;10.80;99.90;;;;;;7334987;19;108721;-74
2023/04/23 05:43:42;;;;;;;;;;;10.90;99.90;;;;;;7332019;19;109275;-74
2023/04/23 05:46:09;;;;;;;;;;;10.90;99.90;;;;;;7331256;19;110249;-74
2023/04/23 05:48:36;;;;;;;;;;;11.00;99.90;;;;;;7332874;19;108792;-74
2023/04/23 05:51:03;;;;;;;;;;;11.10;99.90;;;;;;7334610;19;108274;-74
2023/04/23 05:53:30;;;;;;;;;;;11.10;99.90;;;;;;7332798;19;109511;-74
2023/04/23 05:55:57;;;;;;;;;;;11.20;99.90;;;;;;7338222;19;108608;-74
2023/04/23 05:58:25;;;;;;;;;;;11.30;99.90;;;;;;7331684;19;109234;-74
2023/04/23 06:00:52;;;;;;;;;;;11.40;99.90;;;;;;7340256;19;108484;-75
2023/04/23 06:03:19;;;;;;;;;;;11.50;99.90;;;;;;7341217;19;108847;-74
2023/04/23 06:05:47;;;;;;;;;;;11.60;99.90;;;;;;7337512;19;110508;-74
2023/04/23 06:08:14;;;;;;;;;;;11.60;99.90;;;;;;7340647;19;109170;-74
2023/04/23 06:10:41;;;;;;;;;;;11.70;99.90;;;;;;7340757;19;111398;-74
2023/04/23 06:13:09;;;;;;;;;;;11.80;99.90;;;;;;7339706;19;110582;-74
2023/04/23 06:15:37;;;;;;;;;;;11.90;99.90;;;;;;7347014;19;108941;-74
2023/04/23 06:18:04;;;;;;;;;;;12.00;99.90;;;;;;7338241;19;109510;-75
2023/04/23 06:20:31;;;;;;;;;;;12.10;99.90;;;;;;7339907;19;109224;-75
2023/04/23 06:22:58;;;;;;;;;;;12.10;99.90;;;;;;7340110;19;109270;-75
2023/04/23 06:25:25;;;;;;;;;;;12.20;99.90;;;;;;7339482;19;110209;-76
2023/04/23 06:27:52;;;;;;;;;;;12.30;99.90;;;;;;7338915;19;108643;-76
2023/04/23 06:30:19;;;;;;;;;;;12.40;99.90;;;;;;7340146;19;109047;-76
2023/04/23 06:32:47;;;;;;;;;;;12.50;99.90;;;;;;7337213;19;109197;-76
2023/04/23 06:35:14;;;;;;;;;;;12.60;99.90;;;;;;7340158;19;109395;-76
2023/04/23 06:37:42;;;;;;;;;;;12.60;99.90;;;;;;7339919;19;108424;-76
2023/04/23 06:40:09;;;;;;;;;;;12.70;99.90;;;;;;7337973;19;109177;-77
2023/04/23 06:42:36;;;;;;;;;;;12.80;99.90;;;;;;7339170;19;109668;-77
2023/04/23 06:45:03;;;;;;;;;;;12.90;99.90;;;;;;7336884;19;109765;-77
2023/04/23 06:47:32;;;;;;;;;;;12.90;99.90;;;;;;7340514;19;108920;-77
2023/04/23 06:49:59;;;;;;;;;;;13.00;99.90;;;;;;7338106;19;108583;-77
2023/04/23 06:52:26;;;;;;;;;;;13.10;99.90;;;;;;7337954;19;109443;-76
2023/04/23 06:54:53;;;;;;;;;;;13.10;99.90;;;;;;7335781;19;111265;-76
2023/04/23 06:57:20;;;;;;;;;;;13.20;99.90;;;;;;7338469;19;108850;-77
2023/04/23 06:59:47;;;;;;;;;;;13.30;99.90;;;;;;7343000;19;110113;-77
2023/04/23 07:02:14;;;;;;;;;;;13.40;99.90;;;;;;7340691;19;110357;-76
2023/04/23 07:04:41;;;;;;;;;;;13.50;99.90;;;;;;7338935;19;113337;-76
2023/04/23 07:07:09;;;;;;;;;;;13.50;99.90;;;;;;7340416;19;108452;-76
2023/04/23 07:09:36;;;;;;;;;;;13.60;99.90;;;;;;7338536;19;110746;-76
2023/04/23 07:12:03;;;;;;;;;;;13.70;99.90;;;;;;7336161;19;109763;-76
2023/04/23 07:14:30;;;;;;;;;;;13.80;99.90;;;;;;7338860;19;109364;-76
2023/04/23 07:16:58;;;;;;;;;;;13.90;99.90;;;;;;7340632;19;109540;-75
2023/04/23 07:19:26;;;;;;;;;;;14.00;99.90;;;;;;7336617;19;110476;-76
2023/04/23 07:21:53;;;;;;;;;;;14.10;99.90;;;;;;7344368;19;109082;-76
2023/04/23 07:24:20;;;;;;;;;;;14.10;99.90;;;;;;7335685;19;109289;-76
2023/04/23 07:26:47;;;;;;;;;;;14.20;99.90;;;;;;7337310;19;108614;-76
2023/04/23 07:29:14;;;;;;;;;;;14.20;99.90;;;;;;7338141;19;109033;-76
2023/04/23 07:31:41;;;;;;;;;;;14.30;99.90;;;;;;7338276;19;109292;-77
2023/04/23 07:34:09;;;;;;;;;;;14.40;99.90;;;;;;7337975;19;108595;-77
2023/04/23 07:36:37;;;;;;;;;;;14.50;99.90;;;;;;7338490;19;108921;-78
2023/04/23 07:39:04;;;;;;;;;;;14.60;99.90;;;;;;7336899;19;110050;-77
2023/04/23 07:41:32;;;;;;;;;;;14.60;99.90;;;;;;7339069;19;108956;-78
2023/04/23 07:43:59;;;;;;;;;;;14.70;99.90;;;;;;7340689;19;109377;-79
2023/04/23 07:46:26;;;;;;;;;;;14.80;99.90;;;;;;7336508;19;110074;-81
2023/04/23 07:48:54;;;;;;;;;;;14.90;99.90;;;;;;7334427;19;108533;-80
2023/04/23 07:51:25;;;;;;;;;;;14.90;99.90;;;;;;7334592;19;109309;-81
2023/04/23 07:53:53;;;;;;;;;;;15.00;99.90;;;;;;7337695;19;108397;-80
2023/04/23 07:56:23;;;;;;;;;;;15.10;99.90;;;;;;7337697;19;109746;-81
2023/04/23 07:58:52;;;;;;;;;;;15.20;99.90;;;;;;7337509;19;109124;-80
2023/04/23 08:01:20;;;;;;;;;;;15.30;99.90;;;;;;7338668;19;109549;-80
2023/04/23 08:03:47;;;;;;;;;;;15.40;99.90;;;;;;7336425;19;109198;-79
2023/04/23 08:06:15;;;;;;;;;;;15.50;99.90;;;;;;7344677;19;111395;-79
2023/04/23 08:08:42;;;;;;;;;;;15.60;99.90;;;;;;7337091;19;109053;-79
2023/04/23 08:11:09;;;;;;;;;;;15.70;99.90;;;;;;7339165;19;110859;-77
2023/04/23 08:13:36;;;;;;;;;;;15.80;99.90;;;;;;7334826;19;109224;-79
2023/04/23 08:16:03;;;;;;;;;;;15.90;99.90;;;;;;7336819;19;108856;-78
2023/04/23 08:18:31;;;;;;;;;;;16.00;99.90;;;;;;7337578;19;110473;-77
2023/04/23 08:20:58;;;;;;;;;;;16.10;99.90;;;;;;7338972;19;108398;-78
2023/04/23 08:23:25;;;;;;;;;;;16.20;99.90;;;;;;7336337;19;108374;-77
2023/04/23 08:25:52;;;;;;;;;;;16.20;99.90;;;;;;7334662;19;110356;-77
2023/04/23 08:28:19;;;;;;;;;;;16.30;99.90;;;;;;7334257;19;108830;-77
2023/04/23 08:30:49;;;;;;;;;;;16.40;99.90;;;;;;7334854;19;113186;-77
2023/04/23 08:33:16;;;;;;;;;;;16.40;99.90;;;;;;7333372;19;108923;-78
2023/04/23 08:35:43;;;;;;;;;;;16.50;99.90;;;;;;7333200;19;109424;-78
2023/04/23 08:38:10;;;;;;;;;;;16.50;99.90;;;;;;7335001;19;110166;-78
2023/04/23 08:40:37;;;;;;;;;;;16.50;99.90;;;;;;7331613;19;109795;-77
2023/04/23 08:43:24;;;;;;;;;;;16.60;99.90;;;;;;7332513;19;109388;-76
2023/04/23 08:45:52;;;;;;;;;;;16.70;99.90;;;;;;7329733;19;110162;-75
2023/04/23 08:48:19;;;;;;;;;;;16.80;99.90;;;;;;7336999;19;108536;-75
2023/04/23 08:50:46;;;;;;;;;;;16.80;99.90;;;;;;7333023;19;109350;-75
2023/04/23 08:53:17;;;;;;;;;;;16.90;99.90;;;;;;7333820;19;108387;-78
2023/04/23 08:55:44;;;;;;;;;;;17.00;99.90;;;;;;7330759;19;109886;-78
2023/04/23 08:58:11;;;;;;;;;;;17.00;99.90;;;;;;7327557;19;110125;-78
2023/04/23 09:00:39;;;;;;;;;;;17.00;99.90;;;;;;7332412;19;108846;-78
2023/04/23 09:03:07;;;;;;;;;;;17.10;99.90;;;;;;7333014;19;109674;-77
2023/04/23 09:05:34;;;;;;;;;;;17.20;99.90;;;;;;7328236;19;109395;-78
2023/04/23 09:08:01;;;;;;;;;;;17.20;99.90;;;;;;7331442;19;109664;-77
2023/04/23 09:10:28;;;;;;;;;;;17.20;99.90;;;;;;7334746;19;109274;-78
2023/04/23 09:12:56;;;;;;;;;;;17.30;99.90;;;;;;7334514;19;110795;-75
2023/04/23 09:15:23;;;;;;;;;;;17.40;99.90;;;;;;7328545;19;108720;-73
2023/04/23 09:17:50;;;;;;;;;;;17.40;99.90;;;;;;7327782;19;109496;-72
2023/04/23 09:20:17;;;;;;;;;;;17.40;99.90;;;;;;7328623;19;109693;-72
2023/04/23 09:22:44;;;;;;;;;;;17.40;99.90;;;;;;7328418;19;109253;-72
2023/04/23 09:25:20;;;;;;;;;;;17.50;99.90;;;;;;7331329;19;110465;-72
2023/04/23 09:27:48;;;;;;;;;;;17.60;99.90;;;;;;7327817;19;108754;-72
2023/04/23 09:30:16;;;;;;;;;;;17.60;99.90;;;;;;7332045;19;109779;-71
2023/04/23 09:32:48;;;;;;;;;;;17.60;99.90;;;;;;7335169;19;110065;-72
2023/04/23 09:35:16;;;;;;;;;;;17.60;99.90;;;;;;7335313;19;109282;-72
2023/04/23 09:37:47;;;;;;;;;;;17.50;99.90;;;;;;7338733;19;110357;-72
2023/04/23 09:40:16;;;;;;;;;;;17.50;99.90;;;;;;7339768;19;111006;-71
2023/04/23 09:42:47;;;;;;;;;;;17.50;99.90;;;;;;7335071;19;110757;-72
2023/04/23 09:45:14;;;;;;;;;;;17.50;99.90;;;;;;7334205;19;109986;-73
2023/04/23 09:48:08;;;;;;;;;;;17.60;99.90;;;;;;7338894;19;108819;-72
2023/04/23 09:50:37;;;;;;;;;;;17.70;99.90;;;;;;7341198;19;108950;-72
2023/04/23 09:53:08;;;;;;;;;;;17.80;99.90;;;;;;7341679;19;110712;-72
2023/04/23 09:55:37;;;;;;;;;;;17.80;99.90;;;;;;7345531;19;110515;-72
2023/04/23 09:58:09;;;;;;;;;;;17.80;99.90;;;;;;7343270;19;110303;-72
2023/04/23 10:00:37;;;;;;;;;;;17.80;99.90;;;;;;7340187;19;109061;-71
2023/04/23 10:03:08;;;;;;;;;;;18.00;99.90;;;;;;7342017;19;110354;-72
2023/04/23 10:05:40;;;;;;;;;;;18.00;99.90;;;;;;7341252;19;109436;-71
2023/04/23 10:08:12;;;;;;;;;;;18.20;99.90;;;;;;7341975;19;108505;-71
2023/04/23 10:10:40;;;;;;;;;;;18.20;99.90;;;;;;7339869;19;109693;-71
2023/04/23 10:13:20;;;;;;;;;;;18.20;99.90;;;;;;7342974;19;109078;-71
2023/04/23 10:15:47;;;;;;;;;;;18.30;99.90;;;;;;7341624;19;110100;-72
2023/04/23 10:18:15;;;;;;;;;;;18.30;99.90;;;;;;7345845;19;108338;-71
2023/04/23 10:20:42;;;;;;;;;;;18.40;99.90;;;;;;7340331;19;108699;-72
2023/04/23 10:23:10;;;;;;;;;;;18.40;99.90;;;;;;7340925;19;109228;-72
2023/04/23 10:25:37;;;;;;;;;;;18.40;99.90;;;;;;7339150;19;110183;-72
2023/04/23 10:28:06;;;;;;;;;;;18.50;99.90;;;;;;7342103;19;108741;-72
2023/04/23 10:30:34;;;;;;;;;;;18.50;99.90;;;;;;7340254;19;108532;-72
2023/04/23 10:33:01;;;;;;;;;;;18.60;99.90;;;;;;7337840;19;110155;-73
2023/04/23 10:35:28;;;;;;;;;;;18.60;99.90;;;;;;7338716;19;108739;-70
2023/04/23 10:37:55;;;;;;;;;;;18.60;99.90;;;;;;7345476;19;108701;-70
2023/04/23 10:40:28;;;;;;;;;;;18.70;99.90;;;;;;7338664;19;108660;-70
2023/04/23 10:42:56;;;;;;;;;;;18.80;99.90;;;;;;7340368;19;109285;-70
2023/04/23 10:45:23;;;;;;;;;;;18.80;99.90;;;;;;7334980;19;110017;-70
2023/04/23 10:47:54;;;;;;;;;;;18.80;99.90;;;;;;7339788;19;109109;-70
2023/04/23 10:50:23;;;;;;;;;;;18.80;99.90;;;;;;7338341;19;109017;-70
2023/04/23 10:52:52;;;;;;;;;;;18.80;99.90;;;;;;7337731;19;109069;-70
2023/04/23 10:55:21;;;;;;;;;;;18.80;99.90;;;;;;7337622;19;108930;-70
2023/04/23 10:57:58;;;;;;;;;;;18.70;99.90;;;;;;7341132;19;109085;-70
2023/04/23 11:00:29;;;;;;;;;;;18.60;99.90;;;;;;7343076;19;110395;-70
2023/04/23 11:02:56;;;;;;;;;;;18.50;99.90;;;;;;7337952;19;109150;-70
2023/04/23 11:05:24;;;;;;;;;;;18.50;99.90;;;;;;7337629;19;110368;-70
2023/04/23 11:08:01;;;;;;;;;;;18.40;99.90;;;;;;7338320;19;108732;-70
2023/04/23 11:10:50;;;;;;;;;;;18.30;99.90;;;;;;7337859;19;108463;-70
2023/04/23 11:13:27;;;;;;;;;;;18.40;99.90;;;;;;7337628;19;110212;-69
2023/04/23 11:16:14;;;;;;;;;;;18.40;99.90;;;;;;7338372;19;108763;-70
2023/04/23 11:18:58;;;;;;;;;;;18.40;99.90;;;;;;7334905;19;108838;-70
2023/04/23 11:21:44;;;;;;;;;;;18.40;99.90;;;;;;7334278;19;111258;-70
2023/04/23 11:24:11;;;;;;;;;;;18.20;99.90;;;;;;7342839;19;109435;-69
2023/04/23 11:26:41;;;;;;;;;;;18.20;99.90;;;;;;7335681;19;108913;-69
2023/04/23 11:29:11;;;;;;;;;;;18.10;99.90;;;;;;7338811;19;108529;-69
2023/04/23 11:31:38;;;;;;;;;;;18.10;99.90;;;;;;7335540;19;108807;-69
2023/04/23 11:34:25;;;;;;;;;;;18.10;99.90;;;;;;7332659;19;112118;-70
2023/04/23 11:36:53;;;;;;;;;;;18.20;99.90;;;;;;7335182;19;109945;-70
2023/04/23 11:39:22;;;;;;;;;;;18.20;99.90;;;;;;7337329;19;109261;-70
2023/04/23 11:41:51;;;;;;;;;;;18.20;99.90;;;;;;7334383;19;109187;-70
2023/04/23 11:44:20;;;;;;;;;;;18.20;99.90;;;;;;7335713;19;108891;-71
2023/04/23 11:46:48;;;;;;;;;;;18.20;99.90;;;;;;7339594;19;108962;-70
2023/04/23 11:49:19;;;;;;;;;;;18.10;99.90;;;;;;7337213;19;108792;-70
2023/04/23 11:51:46;;;;;;;;;;;18.00;99.90;;;;;;7336386;19;113528;-70
2023/04/23 11:54:13;;;;;;;;;;;18.10;99.90;;;;;;7337749;19;109756;-71
2023/04/23 11:56:41;;;;;;;;;;;18.10;99.90;;;;;;7334562;19;108345;-70
2023/04/23 11:59:08;;;;;;;;;;;18.20;99.90;;;;;;7336587;19;108672;-70
2023/04/23 12:01:42;;;;;;;;;;;18.30;99.90;;;;;;7329069;19;109054;-71
2023/04/23 12:04:10;;;;;;;;;;;18.40;99.90;;;;;;7334475;19;109728;-70
2023/04/23 12:06:38;;;;;;;;;;;18.50;99.90;;;;;;7336991;19;108611;-70
2023/04/23 12:09:05;;;;;;;;;;;18.60;99.90;;;;;;7344145;19;109861;-70
2023/04/23 12:11:35;;;;;;;;;;;18.70;99.90;;;;;;7335261;19;110130;-71
2023/04/23 12:14:02;;;;;;;;;;;18.80;99.90;;;;;;7339292;19;110015;-70
2023/04/23 12:16:43;;;;;;;;;;;18.90;99.90;;;;;;7336217;19;110265;-70
2023/04/23 12:19:14;;;;;;;;;;;19.00;99.90;;;;;;7340410;19;109130;-70
2023/04/23 12:21:55;;;;;;;;;;;19.00;99.90;;;;;;7334589;19;111160;-71
2023/04/23 12:24:26;;;;;;;;;;;18.90;99.90;;;;;;7335356;19;110568;-69
2023/04/23 12:26:54;;;;;;;;;;;18.80;99.90;;;;;;7337179;19;108559;-69
2023/04/23 12:29:22;;;;;;;;;;;18.80;99.90;;;;;;7333812;19;110040;-70
2023/04/23 12:31:50;;;;;;;;;;;18.90;99.90;;;;;;7340226;19;109397;-70
2023/04/23 12:34:19;;;;;;;;;;;18.90;99.90;;;;;;7335447;19;111764;-69
2023/04/23 12:36:47;;;;;;;;;;;18.90;99.90;;;;;;7338001;19;108868;-70
2023/04/23 12:39:40;;;;;;;;;;;18.90;99.90;;;;;;7336479;19;109249;-70
2023/04/23 12:42:09;;;;;;;;;;;18.90;99.90;;;;;;7334944;19;110539;-70
2023/04/23 12:44:36;;;;;;;;;;;18.70;99.90;;;;;;7334969;19;108580;-69
2023/04/23 12:47:04;;;;;;;;;;;18.70;99.90;;;;;;7335845;19;108365;-70
2023/04/23 12:49:31;;;;;;;;;;;18.50;99.90;;;;;;7336078;19;112791;-70
2023/04/23 12:52:00;;;;;;;;;;;18.30;99.90;;;;;;7338564;19;108829;-69
2023/04/23 12:54:29;;;;;;;;;;;18.20;99.90;;;;;;7335259;19;110154;-70
2023/04/23 12:57:00;;;;;;;;;;;18.20;99.90;;;;;;7335534;19;108817;-70
2023/04/23 12:59:28;;;;;;;;;;;18.10;99.90;;;;;;7332642;19;109420;-70
2023/04/23 13:01:55;;;;;;;;;;;18.00;99.90;;;;;;7339068;19;110291;-70
2023/04/23 13:04:22;;;;;;;;;;;17.90;99.90;;;;;;7335191;19;108510;-69
2023/04/23 13:06:49;;;;;;;;;;;17.80;99.90;;;;;;7332747;19;108851;-70
2023/04/23 13:09:16;;;;;;;;;;;17.60;99.90;;;;;;7333556;19;109109;-70
2023/04/23 13:11:45;;;;;;;;;;;17.40;99.90;;;;;;7344427;19;109628;-70
2023/04/23 13:14:12;;;;;;;;;;;17.30;99.90;;;;;;7346947;19;109363;-70
2023/04/23 13:16:40;;;;;;;;;;;17.20;99.90;;;;;;7338452;19;108757;-71
2023/04/23 13:19:07;;;;;;;;;;;17.00;99.90;;;;;;7343316;19;110461;-71
2023/04/23 13:21:34;;;;;;;;;;;17.00;99.90;;;;;;7341511;19;110115;-71
2023/04/23 13:24:01;;;;;;;;;;;16.90;99.90;;;;;;7345748;19;108492;-71
2023/04/23 13:26:31;;;;;;;;;;;16.80;99.90;;;;;;7341770;19;108693;-70
2023/04/23 13:28:59;;;;;;;;;;;16.70;99.90;;;;;;7338626;19;109683;-70
2023/04/23 13:31:26;;;;;;;;;;;16.60;99.90;;;;;;7340799;19;109234;-70
2023/04/23 13:33:53;;;;;;;;;;;16.60;99.90;;;;;;7340011;19;109025;-70
2023/04/23 13:36:20;;;;;;;;;;;16.60;99.90;;;;;;7346627;19;110297;-70
2023/04/23 13:38:47;;;;;;;;;;;16.50;99.90;;;;;;7339624;19;109707;-70
2023/04/23 13:41:15;;;;;;;;;;;16.50;99.90;;;;;;7339820;19;110188;-70
2023/04/23 13:43:42;;;;;;;;;;;16.50;99.90;;;;;;7339528;19;108890;-70
2023/04/23 13:46:09;;;;;;;;;;;16.40;99.90;;;;;;7340330;19;108836;-70
2023/04/23 13:48:36;;;;;;;;;;;16.40;99.90;;;;;;7337647;19;113697;-70
2023/04/23 13:51:03;;;;;;;;;;;16.30;99.90;;;;;;7341200;19;108410;-70
2023/04/23 13:53:42;;;;;;;;;;;16.20;99.90;;;;;;7339742;19;110590;-70
2023/04/23 13:56:09;;;;;;;;;;;16.10;99.90;;;;;;7340821;19;109628;-70
2023/04/23 13:58:38;;;;;;;;;;;16.10;99.90;;;;;;7343042;19;110553;-70
2023/04/23 14:01:05;;;;;;;;;;;16.00;99.90;;;;;;7341250;19;110288;-70
2023/04/23 14:03:32;;;;;;;;;;;16.00;99.90;;;;;;7340635;19;108350;-70
2023/04/23 14:06:01;;;;;;;;;;;15.90;99.90;;;;;;7338618;19;109030;-69
2023/04/23 14:08:28;;;;;;;;;;;15.90;99.90;;;;;;7339939;19;109114;-70
2023/04/23 14:10:55;;;;;;;;;;;15.90;99.90;;;;;;7339210;19;108751;-69